createdAt,value
2019-04-01T00:00:11.769Z,84.70
2019-04-01T00:02:40.288Z,83.90
2019-04-01T00:05:09.069Z,84.20
2019-04-01T00:07:37.512Z,83.20
2019-04-01T00:10:07.143Z,83.80
2019-04-01T00:12:35.579Z,84.40
2019-04-01T00:15:05.660Z,85.20
2019-04-01T00:17:34.121Z,84.30
2019-04-01T00:20:02.561Z,84.40
2019-04-01T00:22:31.055Z,85.00
2019-04-01T00:24:59.959Z,83.80
2019-04-01T00:27:28.686Z,84.10
2019-04-01T00:29:57.129Z,84.30
2019-04-01T00:32:25.585Z,84.20
2019-04-01T00:34:54.035Z,84.20
2019-04-01T00:37:22.497Z,84.30
2019-04-01T00:39:50.965Z,84.10
2019-04-01T00:42:27.164Z,84.30
2019-04-01T00:44:55.620Z,84.60
2019-04-01T00:47:24.074Z,83.50
2019-04-01T00:49:52.625Z,84.90
2019-04-01T00:52:21.076Z,84.60
2019-04-01T00:54:49.546Z,84.60
2019-04-01T00:57:17.991Z,85.10
2019-04-01T00:59:46.434Z,84.50
2019-04-01T01:02:14.909Z,85.40
2019-04-01T01:04:43.430Z,84.80
2019-04-01T01:07:12.773Z,84.50
2019-04-01T01:09:41.278Z,84.50
2019-04-01T01:12:09.718Z,84.70
2019-04-01T01:14:38.172Z,85.00
2019-04-01T01:17:06.628Z,85.00
2019-04-01T01:19:35.107Z,84.70
2019-04-01T01:22:03.544Z,84.90
2019-04-01T01:24:32.635Z,85.20
2019-04-01T01:27:02.453Z,85.30
2019-04-01T01:29:30.906Z,84.80
2019-04-01T01:31:59.439Z,84.70
2019-04-01T01:34:27.896Z,85.20
2019-04-01T01:36:56.340Z,84.80
2019-04-01T01:39:24.784Z,85.10
2019-04-01T01:41:53.237Z,84.70
2019-04-01T01:44:21.979Z,84.90
2019-04-01T01:46:50.412Z,84.90
2019-04-01T01:49:18.852Z,85.30
2019-04-01T01:51:47.322Z,85.00
2019-04-01T01:54:15.775Z,84.90
2019-04-01T01:56:44.226Z,85.00
2019-04-01T01:59:12.656Z,84.50
2019-04-01T02:01:41.112Z,85.00
2019-04-01T02:04:09.552Z,84.90
2019-04-01T02:06:38.263Z,85.60
2019-04-01T02:09:07.277Z,85.60
2019-04-01T02:11:35.724Z,84.60
2019-04-01T02:14:04.253Z,85.00
2019-04-01T02:16:32.723Z,85.70
2019-04-01T02:19:01.175Z,84.90
2019-04-01T02:21:29.683Z,85.30
2019-04-01T02:23:58.142Z,84.90
2019-04-01T02:26:26.579Z,85.20
2019-04-01T02:28:55.294Z,84.80
2019-04-01T02:31:23.741Z,85.40
2019-04-01T02:33:52.282Z,84.80
2019-04-01T02:36:20.726Z,85.60
2019-04-01T02:38:49.177Z,85.90
2019-04-01T02:41:17.649Z,85.20
2019-04-01T02:43:46.422Z,84.80
2019-04-01T02:46:14.920Z,84.70
2019-04-01T02:48:43.411Z,84.90
2019-04-01T02:51:12.122Z,85.80
2019-04-01T02:53:59.914Z,85.90
2019-04-01T02:56:28.430Z,85.20
2019-04-01T02:58:56.886Z,85.10
2019-04-01T03:01:25.335Z,85.10
2019-04-01T03:03:53.823Z,85.00
2019-04-01T03:06:22.277Z,85.70
2019-04-01T03:08:50.794Z,85.80
2019-04-01T03:11:19.344Z,85.60
2019-04-01T03:13:47.812Z,85.10
2019-04-01T03:16:16.317Z,85.30
2019-04-01T03:18:44.834Z,85.50
2019-04-01T03:21:13.288Z,85.50
2019-04-01T03:23:41.770Z,85.40
2019-04-01T03:26:10.286Z,85.70
2019-04-01T03:28:38.726Z,85.30
2019-04-01T03:31:07.456Z,85.90
2019-04-01T03:33:35.904Z,85.90
2019-04-01T03:36:04.418Z,85.90
2019-04-01T03:38:32.907Z,86.40
2019-04-01T03:41:01.618Z,86.50
2019-04-01T03:43:30.067Z,87.30
2019-04-01T03:45:58.596Z,86.30
2019-04-01T03:48:27.117Z,86.70
2019-04-01T03:50:55.854Z,86.20
2019-04-01T03:53:24.377Z,86.20
2019-04-01T03:55:52.823Z,87.10
2019-04-01T03:58:21.285Z,87.10
2019-04-01T04:00:49.812Z,86.80
2019-04-01T04:03:18.302Z,86.40
2019-04-01T04:05:46.743Z,86.80
2019-04-01T04:08:15.182Z,86.70
2019-04-01T04:10:43.738Z,86.60
2019-04-01T04:13:12.280Z,87.30
2019-04-01T04:15:40.858Z,87.50
2019-04-01T04:18:09.382Z,87.50
2019-04-01T04:20:37.834Z,87.50
2019-04-01T04:23:06.300Z,87.70
2019-04-01T04:25:34.837Z,87.90
2019-04-01T04:28:03.643Z,87.50
2019-04-01T04:30:32.423Z,87.40
2019-04-01T04:33:00.942Z,88.10
2019-04-01T04:35:29.636Z,87.70
2019-04-01T04:37:58.340Z,88.20
2019-04-01T04:40:26.793Z,88.20
2019-04-01T04:42:55.263Z,88.00
2019-04-01T04:45:24.258Z,88.10
2019-04-01T04:47:52.728Z,88.10
2019-04-01T04:50:21.182Z,87.90
2019-04-01T04:52:49.632Z,88.50
2019-04-01T04:55:18.090Z,88.90
2019-04-01T04:57:46.525Z,88.60
2019-04-01T05:00:15.234Z,88.70
2019-04-01T05:02:43.940Z,88.90
2019-04-01T05:05:12.524Z,89.10
2019-04-01T05:07:40.994Z,88.90
2019-04-01T05:10:09.680Z,89.10
2019-04-01T05:12:38.140Z,89.10
2019-04-01T05:15:07.865Z,89.40
2019-04-01T05:17:36.347Z,89.20
2019-04-01T05:20:05.931Z,89.60
2019-04-01T05:22:35.089Z,89.50
2019-04-01T05:25:05.075Z,89.50
2019-04-01T05:27:35.187Z,89.80
2019-04-01T05:30:06.465Z,90.00
2019-04-01T05:32:37.594Z,89.50
2019-04-01T05:35:07.982Z,89.50
2019-04-01T05:37:37.059Z,89.70
2019-04-01T05:40:07.056Z,90.10
2019-04-01T05:42:36.206Z,90.20
2019-04-01T05:45:06.896Z,90.10
2019-04-01T05:47:52.316Z,89.80
2019-04-01T05:50:23.618Z,89.60
2019-04-01T05:52:55.879Z,89.30
2019-04-01T05:55:35.448Z,88.80
2019-04-01T05:58:04.170Z,88.50
2019-04-01T06:00:35.112Z,89.40
2019-04-01T06:03:03.980Z,90.00
2019-04-01T06:05:32.546Z,89.10
2019-04-01T06:08:01.145Z,88.70
2019-04-01T06:10:29.740Z,88.90
2019-04-01T06:12:59.174Z,88.40
2019-04-01T06:15:27.712Z,89.90
2019-04-01T06:17:56.418Z,88.60
2019-04-01T06:20:25.028Z,88.50
2019-04-01T06:22:53.875Z,88.20
2019-04-01T06:25:22.586Z,88.40
2019-04-01T06:27:51.256Z,88.80
2019-04-01T06:30:19.844Z,88.20
2019-04-01T06:32:48.380Z,88.20
2019-04-01T06:35:16.925Z,88.50
2019-04-01T06:37:45.529Z,88.20
2019-04-01T06:40:14.436Z,87.80
2019-04-01T06:42:43.337Z,88.00
2019-04-01T06:45:11.877Z,87.60
2019-04-01T06:47:40.414Z,87.70
2019-04-01T06:50:09.331Z,87.10
2019-04-01T06:52:37.791Z,86.70
2019-04-01T06:55:07.219Z,86.60
2019-04-01T06:57:35.752Z,87.40
2019-04-01T07:00:05.565Z,86.00
2019-04-01T07:02:34.226Z,87.10
2019-04-01T07:05:02.800Z,86.20
2019-04-01T07:07:31.336Z,85.20
2019-04-01T07:09:59.797Z,85.70
2019-04-01T07:12:28.420Z,84.90
2019-04-01T07:14:57.450Z,85.70
2019-04-01T07:17:26.127Z,85.40
2019-04-01T07:19:54.685Z,85.90
2019-04-01T07:22:23.144Z,84.50
2019-04-01T07:24:51.697Z,84.10
2019-04-01T07:27:20.435Z,84.40
2019-04-01T07:29:48.900Z,84.90
2019-04-01T07:32:17.508Z,84.90
2019-04-01T07:34:46.121Z,83.20
2019-04-01T07:37:14.644Z,83.30
2019-04-01T07:39:43.369Z,84.30
2019-04-01T07:42:11.929Z,83.80
2019-04-01T07:44:40.557Z,83.80
2019-04-01T07:47:09.258Z,82.70
2019-04-01T07:49:37.886Z,84.20
2019-04-01T07:52:06.413Z,83.40
2019-04-01T07:54:35.055Z,82.40
2019-04-01T07:57:03.821Z,81.10
2019-04-01T07:59:32.616Z,80.60
2019-04-01T08:02:01.807Z,81.10
2019-04-01T08:04:30.425Z,81.70
2019-04-01T08:06:58.924Z,80.10
2019-04-01T08:09:27.523Z,81.40
2019-04-01T08:11:56.059Z,79.60
2019-04-01T08:14:24.692Z,80.70
2019-04-01T08:16:53.224Z,79.90
2019-04-01T08:19:22.017Z,78.20
2019-04-01T08:21:52.523Z,77.50
2019-04-01T08:24:21.149Z,78.70
2019-04-01T08:26:49.689Z,78.30
2019-04-01T08:29:29.496Z,78.00
2019-04-01T08:31:48.871Z,77.40
2019-04-01T08:34:17.518Z,77.00
2019-04-01T08:39:32.331Z,78.30
2019-04-01T08:42:00.958Z,76.70
2019-04-01T08:44:29.410Z,77.40
2019-04-01T08:46:57.954Z,77.20
2019-04-01T08:49:26.749Z,76.70
2019-04-01T08:51:55.227Z,77.00
2019-04-01T08:54:24.170Z,77.30
2019-04-01T08:56:52.717Z,74.90
2019-04-01T08:59:21.270Z,74.40
2019-04-01T09:01:49.726Z,74.70
2019-04-01T09:04:18.280Z,74.90
2019-04-01T09:06:46.761Z,76.50
2019-04-01T09:09:15.634Z,75.60
2019-04-01T09:11:44.335Z,77.60
2019-04-01T09:14:13.228Z,74.20
2019-04-01T09:16:43.117Z,78.10
2019-04-01T09:19:11.638Z,74.80
2019-04-01T09:21:40.106Z,74.90
2019-04-01T09:24:08.556Z,73.80
2019-04-01T09:26:37.029Z,74.00
2019-04-01T09:29:05.561Z,75.10
2019-04-01T09:31:34.017Z,73.10
2019-04-01T09:34:02.484Z,72.00
2019-04-01T09:36:33.405Z,73.30
2019-04-01T09:39:01.854Z,72.50
2019-04-01T09:41:30.326Z,74.10
2019-04-01T09:43:58.775Z,71.60
2019-04-01T09:46:27.235Z,73.30
2019-04-01T09:48:55.685Z,73.00
2019-04-01T09:51:24.181Z,73.20
2019-04-01T09:53:52.691Z,76.00
2019-04-01T09:56:21.144Z,73.80
2019-04-01T09:58:49.927Z,74.60
2019-04-01T10:01:18.449Z,74.00
2019-04-01T10:03:46.922Z,70.80
2019-04-01T10:06:15.389Z,74.40
2019-04-01T10:08:43.859Z,75.30
2019-04-01T10:11:13.105Z,70.80
2019-04-01T10:13:41.889Z,69.80
2019-04-01T10:16:10.448Z,71.00
2019-04-01T10:18:38.979Z,70.00
2019-04-01T10:21:07.547Z,70.20
2019-04-01T10:23:36.043Z,72.40
2019-04-01T10:26:04.587Z,73.60
2019-04-01T10:28:33.073Z,71.20
2019-04-01T10:31:01.627Z,71.40
2019-04-01T10:33:30.396Z,71.60
2019-04-01T10:35:59.130Z,67.70
2019-04-01T10:38:27.653Z,72.10
2019-04-01T10:40:56.123Z,71.20
2019-04-01T10:43:26.113Z,71.50
2019-04-01T10:45:54.645Z,67.00
2019-04-01T10:48:23.265Z,68.60
2019-04-01T10:50:51.865Z,66.60
2019-04-01T10:53:20.430Z,68.50
2019-04-01T10:55:49.019Z,66.60
2019-04-01T10:58:17.636Z,67.40
2019-04-01T11:00:46.185Z,65.80
2019-04-01T11:03:15.102Z,68.30
2019-04-01T11:05:43.660Z,67.60
2019-04-01T11:08:12.441Z,67.60
2019-04-01T11:10:40.983Z,67.30
2019-04-01T11:13:09.462Z,68.10
2019-04-01T11:15:38.042Z,66.30
2019-04-01T11:18:06.521Z,66.20
2019-04-01T11:20:36.131Z,65.80
2019-04-01T11:23:05.407Z,66.60
2019-04-01T11:25:33.876Z,66.30
2019-04-01T11:28:02.391Z,62.90
2019-04-01T11:30:31.061Z,64.50
2019-04-01T11:32:59.647Z,64.00
2019-04-01T11:35:28.441Z,65.90
2019-04-01T11:37:57.002Z,69.80
2019-04-01T11:40:25.587Z,65.20
2019-04-01T11:42:54.508Z,62.50
2019-04-01T11:45:22.957Z,65.70
2019-04-01T11:47:51.526Z,65.80
2019-04-01T11:50:20.089Z,64.80
2019-04-01T11:52:48.846Z,64.30
2019-04-01T11:55:17.373Z,62.90
2019-04-01T11:57:45.904Z,59.90
2019-04-01T12:00:16.777Z,59.30
2019-04-01T12:02:46.112Z,61.60
2019-04-01T12:05:14.953Z,64.70
2019-04-01T12:07:43.440Z,62.70
2019-04-01T12:10:12.968Z,61.10
2019-04-01T12:12:41.520Z,60.20
2019-04-01T12:15:12.448Z,60.10
2019-04-01T12:17:41.879Z,61.90
2019-04-01T12:20:10.871Z,60.80
2019-04-01T12:22:40.600Z,59.50
2019-04-01T12:25:09.665Z,58.50
2019-04-01T12:27:38.230Z,58.40
2019-04-01T12:30:07.447Z,58.50
2019-04-01T12:32:35.973Z,59.40
2019-04-01T12:35:06.000Z,57.40
2019-04-01T12:37:34.608Z,58.80
2019-04-01T12:40:04.035Z,59.00
2019-04-01T12:42:32.919Z,59.40
2019-04-01T12:45:01.445Z,58.70
2019-04-01T12:47:29.907Z,59.30
2019-04-01T12:49:58.409Z,56.90
2019-04-01T12:52:26.912Z,55.80
2019-04-01T12:54:55.518Z,56.40
2019-04-01T12:57:24.238Z,56.30
2019-04-01T12:59:53.533Z,57.80
2019-04-01T13:02:22.716Z,57.00
2019-04-01T13:04:51.577Z,58.00
2019-04-01T13:07:20.768Z,55.80
2019-04-01T13:09:49.462Z,55.90
2019-04-01T13:12:18.213Z,57.60
2019-04-01T13:14:46.757Z,56.30
2019-04-01T13:17:15.277Z,57.00
2019-04-01T13:19:44.870Z,57.20
2019-04-01T13:22:13.594Z,57.70
2019-04-01T13:24:42.050Z,58.80
2019-04-01T13:27:10.957Z,56.50
2019-04-01T13:29:39.543Z,55.80
2019-04-01T13:32:08.082Z,56.10
2019-04-01T13:34:36.615Z,58.40
2019-04-01T13:37:05.213Z,56.10
2019-04-01T13:39:33.778Z,53.70
2019-04-01T13:42:02.249Z,54.00
2019-04-01T13:44:37.208Z,54.70
2019-04-01T13:47:00.975Z,52.60
2019-04-01T13:49:29.518Z,52.80
2019-04-01T13:51:59.540Z,53.70
2019-04-01T13:54:29.032Z,52.00
2019-04-01T13:56:57.527Z,53.40
2019-04-01T13:59:26.004Z,51.10
2019-04-01T14:01:56.433Z,52.60
2019-04-01T14:04:24.711Z,51.90
2019-04-01T14:06:53.276Z,53.90
2019-04-01T14:09:21.840Z,51.60
2019-04-01T14:11:50.653Z,52.70
2019-04-01T14:14:19.133Z,52.00
2019-04-01T14:16:47.631Z,53.50
2019-04-01T14:19:16.123Z,54.60
2019-04-01T14:21:44.631Z,53.90
2019-04-01T14:24:13.097Z,53.80
2019-04-01T14:26:41.565Z,55.30
2019-04-01T14:29:10.139Z,55.80
2019-04-01T14:31:38.638Z,51.70
2019-04-01T14:34:13.119Z,53.90
2019-04-01T14:36:38.097Z,51.90
2019-04-01T14:39:07.304Z,52.00
2019-04-01T14:41:35.945Z,52.30
2019-04-01T14:44:04.490Z,51.60
2019-04-01T14:46:32.980Z,52.90
2019-04-01T14:49:02.783Z,53.90
2019-04-01T14:51:31.665Z,52.20
2019-04-01T14:54:00.206Z,52.90
2019-04-01T14:56:28.695Z,50.60
2019-04-01T14:58:57.606Z,50.80
2019-04-01T15:01:26.155Z,50.60
2019-04-01T15:03:54.609Z,53.20
2019-04-01T15:06:23.078Z,50.20
2019-04-01T15:08:51.584Z,51.10
2019-04-01T15:11:20.225Z,52.60
2019-04-01T15:13:48.689Z,52.20
2019-04-01T15:16:17.173Z,50.50
2019-04-01T15:18:45.920Z,51.90
2019-04-01T15:21:14.685Z,50.90
2019-04-01T15:23:43.168Z,53.30
2019-04-01T15:26:11.698Z,51.40
2019-04-01T15:28:40.177Z,50.60
2019-04-01T15:31:09.076Z,50.40
2019-04-01T15:33:37.538Z,50.50
2019-04-01T15:36:06.024Z,52.20
2019-04-01T15:38:34.835Z,52.60
2019-04-01T15:41:03.373Z,53.40
2019-04-01T15:43:31.925Z,51.00
2019-04-01T15:46:03.914Z,51.80
2019-04-01T15:48:30.615Z,51.90
2019-04-01T15:50:59.152Z,51.80
2019-04-01T15:53:27.608Z,50.30
2019-04-01T15:55:56.110Z,52.40
2019-04-01T15:58:24.860Z,50.60
2019-04-01T16:00:53.379Z,48.70
2019-04-01T16:03:21.891Z,49.30
2019-04-01T16:05:50.462Z,51.50
2019-04-01T16:08:18.982Z,52.40
2019-04-01T16:10:47.464Z,53.00
2019-04-01T16:13:15.943Z,52.50
2019-04-01T16:15:44.493Z,49.80
2019-04-01T16:18:12.968Z,52.00
2019-04-01T16:20:41.447Z,53.20
2019-04-01T16:23:09.930Z,52.60
2019-04-01T16:25:38.410Z,53.50
2019-04-01T16:28:06.900Z,50.40
2019-04-01T16:30:35.386Z,51.40
2019-04-01T16:33:03.947Z,54.90
2019-04-01T16:35:32.436Z,53.60
2019-04-01T16:38:00.896Z,52.20
2019-04-01T16:40:29.370Z,53.90
2019-04-01T16:42:57.915Z,54.60
2019-04-01T16:45:26.459Z,55.00
2019-04-01T16:47:55.062Z,56.10
2019-04-01T16:50:23.650Z,53.30
2019-04-01T16:52:52.446Z,52.80
2019-04-01T16:55:21.087Z,53.00
2019-04-01T16:57:49.548Z,54.40
2019-04-01T17:00:18.761Z,55.30
2019-04-01T17:02:47.290Z,55.20
2019-04-01T17:05:18.172Z,56.00
2019-04-01T17:07:46.937Z,56.30
2019-04-01T17:10:21.496Z,56.10
2019-04-01T17:12:50.021Z,56.00
2019-04-01T17:15:18.791Z,56.00
2019-04-01T17:17:47.329Z,56.90
2019-04-01T17:20:16.128Z,57.10
2019-04-01T17:22:44.597Z,57.30
2019-04-01T17:25:13.203Z,56.90
2019-04-01T17:27:41.739Z,57.70
2019-04-01T17:30:11.368Z,58.50
2019-04-01T17:32:40.312Z,58.80
2019-04-01T17:35:13.001Z,58.30
2019-04-01T17:37:41.829Z,58.10
2019-04-01T17:40:10.944Z,59.20
2019-04-01T17:42:39.574Z,59.70
2019-04-01T17:45:25.680Z,60.90
2019-04-01T17:47:54.312Z,61.50
2019-04-01T17:50:22.983Z,60.20
2019-04-01T17:52:51.566Z,62.00
2019-04-01T17:55:20.088Z,61.20
2019-04-01T17:57:49.743Z,59.80
2019-04-01T18:00:20.025Z,60.50
2019-04-01T18:02:48.557Z,60.20
2019-04-01T18:05:17.465Z,59.70
2019-04-01T18:07:46.122Z,60.40
2019-04-01T18:10:14.908Z,61.10
2019-04-01T18:12:43.383Z,60.30
2019-04-01T18:15:12.264Z,60.40
2019-04-01T18:17:41.308Z,61.00
2019-04-01T18:20:10.483Z,63.00
2019-04-01T18:22:38.949Z,62.40
2019-04-01T18:25:08.463Z,62.10
2019-04-01T18:27:36.956Z,62.50
2019-04-01T18:30:08.019Z,63.10
2019-04-01T18:32:36.509Z,63.60
2019-04-01T18:35:06.522Z,63.30
2019-04-01T18:37:34.990Z,62.70
2019-04-01T18:40:04.512Z,63.30
2019-04-01T18:42:32.969Z,63.80
2019-04-01T18:45:01.461Z,63.80
2019-04-01T18:47:29.945Z,63.40
2019-04-01T18:49:58.400Z,63.10
2019-04-01T18:52:26.952Z,63.70
2019-04-01T18:54:55.430Z,64.60
2019-04-01T18:57:23.995Z,64.40
2019-04-01T18:59:52.469Z,64.60
2019-04-01T19:02:21.011Z,64.90
2019-04-01T19:04:49.496Z,64.10
2019-04-01T19:07:18.250Z,64.30
2019-04-01T19:09:46.732Z,65.20
2019-04-01T19:12:15.317Z,65.80
2019-04-01T19:14:43.832Z,66.20
2019-04-01T19:17:12.344Z,66.40
2019-04-01T19:19:42.956Z,66.10
2019-04-01T19:22:11.500Z,66.30
2019-04-01T19:24:40.029Z,66.50
2019-04-01T19:27:08.499Z,66.80
2019-04-01T19:29:36.969Z,67.90
2019-04-01T19:32:05.661Z,67.30
2019-04-01T19:34:34.211Z,67.70
2019-04-01T19:37:02.680Z,68.20
2019-04-01T19:39:31.144Z,68.00
2019-04-01T19:41:59.640Z,68.30
2019-04-01T19:44:28.096Z,67.90
2019-04-01T19:46:56.554Z,68.70
2019-04-01T19:49:25.057Z,69.60
2019-04-01T19:51:53.581Z,70.10
2019-04-01T19:54:30.839Z,69.80
2019-04-01T19:56:52.326Z,71.00
2019-04-01T19:59:21.206Z,71.70
2019-04-01T20:01:51.024Z,71.30
2019-04-01T20:04:19.552Z,71.10
2019-04-01T20:06:48.036Z,71.30
2019-04-01T20:09:17.169Z,71.50
2019-04-01T20:11:46.580Z,71.80
2019-04-01T20:14:15.103Z,72.60
2019-04-01T20:16:46.684Z,72.40
2019-04-01T20:19:13.812Z,72.00
2019-04-01T20:21:42.296Z,72.40
2019-04-01T20:24:10.762Z,72.80
2019-04-01T20:26:39.301Z,72.70
2019-04-01T20:29:07.889Z,73.10
2019-04-01T20:31:37.218Z,72.80
2019-04-01T20:34:19.038Z,72.90
2019-04-01T20:36:37.268Z,74.00
2019-04-01T20:39:08.504Z,74.20
2019-04-01T20:41:37.070Z,74.70
2019-04-01T20:44:05.676Z,75.30
2019-04-01T20:46:35.657Z,75.60
2019-04-01T20:49:04.790Z,75.80
2019-04-01T20:51:33.311Z,75.70
2019-04-01T20:54:01.756Z,75.40
2019-04-01T20:56:31.764Z,74.80
2019-04-01T20:59:00.219Z,74.60
2019-04-01T21:01:28.724Z,74.10
2019-04-01T21:03:58.100Z,74.20
2019-04-01T21:06:27.436Z,73.90
2019-04-01T21:08:55.907Z,71.80
2019-04-01T21:11:24.396Z,71.00
2019-04-01T21:13:52.956Z,71.00
2019-04-01T21:16:21.416Z,72.00
2019-04-01T21:18:49.877Z,72.50
2019-04-01T21:21:18.493Z,71.70
2019-04-01T21:23:46.984Z,69.90
2019-04-01T21:26:15.473Z,68.40
2019-04-01T21:28:43.935Z,67.40
2019-04-01T21:31:12.419Z,67.30
2019-04-01T21:33:41.980Z,67.50
2019-04-01T21:36:10.666Z,66.90
2019-04-01T21:38:39.267Z,66.90
2019-04-01T21:41:09.183Z,66.10
2019-04-01T21:43:37.641Z,65.90
2019-04-01T21:46:06.237Z,65.80
2019-04-01T21:48:34.801Z,65.10
2019-04-01T21:51:04.134Z,65.40
2019-04-01T21:53:32.969Z,65.00
2019-04-01T21:56:01.576Z,64.90
2019-04-01T21:58:30.060Z,65.00
2019-04-01T22:00:59.809Z,64.80
2019-04-01T22:03:28.273Z,65.20
2019-04-01T22:05:56.819Z,65.00
2019-04-01T22:08:25.313Z,65.70
2019-04-01T22:10:53.859Z,65.20
2019-04-01T22:13:22.508Z,65.30
2019-04-01T22:15:50.975Z,65.20
2019-04-01T22:18:19.443Z,65.20
2019-04-01T22:20:48.017Z,65.90
2019-04-01T22:23:16.481Z,65.70
2019-04-01T22:25:45.049Z,64.80
2019-04-01T22:28:13.532Z,64.60
2019-04-01T22:30:42.005Z,65.00
2019-04-01T22:33:11.264Z,65.20
2019-04-01T22:35:41.571Z,65.80
2019-04-01T22:38:10.688Z,65.50
2019-04-01T22:40:39.235Z,65.60
2019-04-01T22:43:07.693Z,65.50
2019-04-01T22:45:36.183Z,65.80
2019-04-01T22:48:04.722Z,65.80
2019-04-01T22:50:33.205Z,65.50
2019-04-01T22:53:01.678Z,65.70
2019-04-01T22:55:30.309Z,66.00
2019-04-01T22:57:58.768Z,66.30
2019-04-01T23:00:27.379Z,67.10
2019-04-01T23:02:55.875Z,67.60
2019-04-01T23:05:24.341Z,67.10
2019-04-01T23:07:52.805Z,66.90
2019-04-01T23:10:21.278Z,67.30
2019-04-01T23:12:50.967Z,67.40
2019-04-01T23:15:19.947Z,66.90
2019-04-01T23:17:48.399Z,67.10
2019-04-01T23:20:16.882Z,67.10
2019-04-01T23:22:45.452Z,67.20
2019-04-01T23:25:14.490Z,67.40
2019-04-01T23:27:43.042Z,67.40
2019-04-01T23:30:12.517Z,67.50
2019-04-01T23:32:42.008Z,67.90
2019-04-01T23:35:12.375Z,67.50
2019-04-01T23:37:41.419Z,67.70
2019-04-01T23:40:10.508Z,68.30
2019-04-01T23:42:38.980Z,68.60
2019-04-01T23:45:08.799Z,68.40
2019-04-01T23:47:37.350Z,68.10
2019-04-01T23:50:09.128Z,68.80
2019-04-01T23:52:38.278Z,68.90
2019-04-01T23:55:08.605Z,69.20
2019-04-01T23:57:37.061Z,69.30
